createdAt,value
2019-03-17T00:01:12.139Z,45.98
2019-03-17T00:03:40.570Z,46.46
2019-03-17T00:06:09.961Z,46.04
2019-03-17T00:08:39.410Z,45.94
2019-03-17T00:11:08.780Z,45.93
2019-03-17T00:13:38.232Z,45.87
2019-03-17T00:16:07.662Z,45.76
2019-03-17T00:18:37.172Z,45.64
2019-03-17T00:21:06.591Z,45.72
2019-03-17T00:23:36.063Z,45.60
2019-03-17T00:26:05.408Z,46.11
2019-03-17T00:28:34.846Z,46.46
2019-03-17T00:31:04.352Z,46.96
2019-03-17T00:33:36.385Z,47.28
2019-03-17T00:36:04.945Z,47.25
2019-03-17T00:38:34.316Z,47.59
2019-03-17T00:41:03.723Z,47.78
2019-03-17T00:43:33.122Z,47.59
2019-03-17T00:46:02.563Z,47.89
2019-03-17T00:48:32.013Z,48.08
2019-03-17T00:51:01.447Z,48.46
2019-03-17T00:53:30.874Z,48.51
2019-03-17T00:56:00.234Z,48.43
2019-03-17T00:58:29.672Z,48.84
2019-03-17T01:00:59.098Z,48.75
2019-03-17T01:03:28.609Z,49.01
2019-03-17T01:05:58.082Z,48.80
2019-03-17T01:08:27.535Z,48.95
2019-03-17T01:10:56.996Z,48.83
2019-03-17T01:13:26.443Z,48.68
2019-03-17T01:15:55.810Z,49.04
2019-03-17T01:18:25.237Z,49.03
2019-03-17T01:20:54.679Z,48.85
2019-03-17T01:23:24.115Z,48.71
2019-03-17T01:25:53.558Z,48.60
2019-03-17T01:28:22.997Z,48.30
2019-03-17T01:30:52.416Z,48.18
2019-03-17T01:33:21.776Z,48.29
2019-03-17T01:35:51.219Z,48.26
2019-03-17T01:38:20.692Z,48.45
2019-03-17T01:40:50.074Z,48.54
2019-03-17T01:43:19.498Z,49.08
2019-03-17T01:45:48.862Z,49.22
2019-03-17T01:48:18.290Z,49.31
2019-03-17T01:50:47.681Z,49.51
2019-03-17T01:53:17.096Z,49.31
2019-03-17T01:55:46.548Z,49.12
2019-03-17T01:58:15.975Z,49.02
2019-03-17T02:00:45.622Z,48.96
2019-03-17T02:03:15.041Z,48.76
2019-03-17T02:05:44.488Z,48.91
2019-03-17T02:08:13.931Z,48.62
2019-03-17T02:10:43.363Z,48.52
2019-03-17T02:13:12.791Z,48.70
2019-03-17T02:15:42.210Z,49.05
2019-03-17T02:18:11.628Z,49.13
2019-03-17T02:20:41.051Z,49.46
2019-03-17T02:23:10.503Z,49.61
2019-03-17T02:25:39.929Z,49.43
2019-03-17T02:28:09.372Z,49.57
2019-03-17T02:30:38.811Z,50.12
2019-03-17T02:33:08.229Z,49.38
2019-03-17T02:35:39.967Z,49.27
2019-03-17T02:38:08.850Z,48.91
2019-03-17T02:40:38.201Z,48.57
2019-03-17T02:43:07.617Z,48.75
2019-03-17T02:45:37.068Z,48.55
2019-03-17T02:48:06.518Z,48.11
2019-03-17T02:50:35.937Z,48.14
2019-03-17T02:53:05.369Z,48.09
2019-03-17T02:55:34.956Z,48.07
2019-03-17T02:58:04.425Z,47.64
2019-03-17T03:00:33.859Z,47.86
2019-03-17T03:03:03.322Z,47.56
2019-03-17T03:05:32.770Z,47.59
2019-03-17T03:08:02.200Z,47.48
2019-03-17T03:10:32.264Z,47.48
2019-03-17T03:13:01.923Z,47.13
2019-03-17T03:15:31.285Z,47.38
2019-03-17T03:18:00.754Z,47.18
2019-03-17T03:20:30.223Z,47.07
2019-03-17T03:22:59.637Z,47.18
2019-03-17T03:25:29.144Z,47.37
2019-03-17T03:27:58.557Z,47.12
2019-03-17T03:30:27.975Z,47.17
2019-03-17T03:32:57.344Z,47.41
2019-03-17T03:35:26.797Z,47.30
2019-03-17T03:37:56.239Z,47.46
2019-03-17T03:40:25.708Z,47.92
2019-03-17T03:42:55.142Z,48.61
2019-03-17T03:45:24.492Z,49.86
2019-03-17T03:47:53.841Z,50.46
2019-03-17T03:50:23.323Z,50.98
2019-03-17T03:52:52.651Z,51.53
2019-03-17T03:55:22.056Z,52.25
2019-03-17T03:57:51.482Z,51.97
2019-03-17T04:00:20.832Z,51.66
2019-03-17T04:02:50.363Z,51.52
2019-03-17T04:05:19.802Z,51.65
2019-03-17T04:07:49.231Z,51.34
2019-03-17T04:10:18.606Z,51.84
2019-03-17T04:12:48.062Z,50.90
2019-03-17T04:15:17.508Z,50.60
2019-03-17T04:17:46.977Z,50.98
2019-03-17T04:20:16.432Z,50.95
2019-03-17T04:22:45.803Z,50.83
2019-03-17T04:25:16.993Z,50.52
2019-03-17T04:27:46.438Z,50.94
2019-03-17T04:30:15.886Z,51.07
2019-03-17T04:32:45.336Z,51.25
2019-03-17T04:35:14.773Z,50.87
2019-03-17T04:37:44.222Z,50.74
2019-03-17T04:40:13.670Z,50.80
2019-03-17T04:42:43.156Z,50.56
2019-03-17T04:45:12.575Z,50.80
2019-03-17T04:47:42.007Z,50.20
2019-03-17T04:50:11.435Z,49.98
2019-03-17T04:52:40.874Z,49.98
2019-03-17T04:55:10.348Z,49.70
2019-03-17T04:57:39.774Z,50.14
2019-03-17T05:00:11.823Z,49.87
2019-03-17T05:02:41.203Z,50.19
2019-03-17T05:05:10.620Z,49.91
2019-03-17T05:07:40.057Z,49.69
2019-03-17T05:10:12.720Z,49.61
2019-03-17T05:12:42.152Z,49.40
2019-03-17T05:15:11.870Z,49.22
2019-03-17T05:17:41.312Z,49.06
2019-03-17T05:20:11.082Z,48.85
2019-03-17T05:22:40.538Z,48.90
2019-03-17T05:25:10.036Z,48.66
2019-03-17T05:27:39.540Z,48.52
2019-03-17T05:30:10.791Z,47.96
2019-03-17T05:32:40.202Z,47.70
2019-03-17T05:35:09.731Z,47.44
2019-03-17T05:37:39.160Z,47.05
2019-03-17T05:40:10.725Z,47.00
2019-03-17T05:42:40.920Z,46.43
2019-03-17T05:45:10.749Z,46.02
2019-03-17T05:47:40.175Z,46.02
2019-03-17T05:50:10.053Z,46.17
2019-03-17T05:52:39.680Z,46.58
2019-03-17T05:55:10.163Z,46.38
2019-03-17T05:57:39.644Z,46.05
2019-03-17T06:00:12.052Z,45.83
2019-03-17T06:02:41.412Z,45.71
2019-03-17T06:05:10.856Z,45.53
2019-03-17T06:07:40.284Z,45.25
2019-03-17T06:10:10.155Z,44.16
2019-03-17T06:12:39.608Z,43.87
2019-03-17T06:15:13.476Z,43.41
2019-03-17T06:17:42.886Z,43.07
2019-03-17T06:20:13.332Z,42.76
2019-03-17T06:22:42.749Z,42.93
2019-03-17T06:25:12.212Z,42.86
2019-03-17T06:27:41.653Z,42.58
2019-03-17T06:30:12.531Z,42.54
2019-03-17T06:32:41.999Z,41.62
2019-03-17T06:35:11.576Z,41.96
2019-03-17T06:37:41.006Z,41.56
2019-03-17T06:40:16.283Z,40.95
2019-03-17T06:42:45.736Z,40.97
2019-03-17T06:45:15.219Z,40.17
2019-03-17T06:47:44.693Z,39.98
2019-03-17T06:50:15.016Z,40.00
2019-03-17T06:52:44.466Z,39.81
2019-03-17T06:55:18.360Z,39.49
2019-03-17T06:57:47.782Z,38.80
2019-03-17T07:00:17.204Z,38.26
2019-03-17T07:02:46.656Z,38.26
2019-03-17T07:05:16.081Z,37.84
2019-03-17T07:07:45.516Z,37.90
2019-03-17T07:10:14.927Z,37.67
2019-03-17T07:12:44.355Z,37.67
2019-03-17T07:15:13.861Z,37.53
2019-03-17T07:17:43.268Z,37.50
2019-03-17T07:20:14.486Z,36.37
2019-03-17T07:22:43.931Z,36.90
2019-03-17T07:25:13.368Z,36.68
2019-03-17T07:27:42.772Z,36.46
2019-03-17T07:30:13.809Z,37.63
2019-03-17T07:32:43.298Z,36.71
2019-03-17T07:35:12.899Z,36.89
2019-03-17T07:37:42.367Z,35.63
2019-03-17T07:40:12.741Z,36.44
2019-03-17T07:42:42.192Z,35.71
2019-03-17T07:45:12.555Z,35.22
2019-03-17T07:47:42.037Z,35.06
2019-03-17T07:50:13.330Z,34.84
2019-03-17T07:52:42.767Z,34.48
2019-03-17T07:55:12.192Z,35.09
2019-03-17T07:57:41.653Z,34.21
2019-03-17T08:00:12.843Z,34.42
2019-03-17T08:02:42.281Z,34.58
2019-03-17T08:05:11.742Z,33.77
2019-03-17T08:07:41.272Z,33.77
2019-03-17T08:10:15.538Z,33.63
2019-03-17T08:12:44.913Z,33.09
2019-03-17T08:15:14.996Z,32.79
2019-03-17T08:17:44.485Z,32.91
2019-03-17T08:20:14.162Z,32.76
2019-03-17T08:22:43.682Z,32.96
2019-03-17T08:25:13.267Z,32.96
2019-03-17T08:27:42.783Z,32.17
2019-03-17T08:30:14.890Z,32.20
2019-03-17T08:32:44.492Z,33.22
2019-03-17T08:35:14.068Z,31.72
2019-03-17T08:37:43.554Z,31.72
2019-03-17T08:40:15.628Z,31.42
2019-03-17T08:42:45.585Z,30.62
2019-03-17T08:45:15.288Z,30.62
2019-03-17T08:47:56.591Z,29.85
2019-03-17T08:50:16.349Z,27.91
2019-03-17T08:52:45.815Z,28.30
2019-03-17T08:55:15.304Z,28.30
2019-03-17T08:57:44.862Z,28.29
2019-03-17T09:00:18.416Z,28.25
2019-03-17T09:02:47.966Z,27.83
2019-03-17T09:05:17.522Z,27.97
2019-03-17T09:07:46.964Z,28.08
2019-03-17T09:10:16.623Z,28.08
2019-03-17T09:12:46.073Z,27.60
2019-03-17T09:15:15.540Z,26.76
2019-03-17T09:17:45.070Z,26.72
2019-03-17T09:20:15.007Z,27.39
2019-03-17T09:22:44.505Z,26.77
2019-03-17T09:25:14.031Z,27.33
2019-03-17T09:27:44.745Z,26.88
2019-03-17T09:30:16.095Z,26.29
2019-03-17T09:32:45.671Z,26.40
2019-03-17T09:35:15.228Z,25.41
2019-03-17T09:37:44.703Z,25.41
2019-03-17T09:40:15.401Z,25.34
2019-03-17T09:42:44.844Z,25.75
2019-03-17T09:45:15.137Z,25.16
2019-03-17T09:47:44.862Z,25.16
2019-03-17T09:50:18.307Z,24.81
2019-03-17T09:52:50.877Z,24.81
2019-03-17T09:55:20.293Z,24.69
2019-03-17T09:57:49.760Z,24.34
2019-03-17T10:00:23.379Z,23.49
2019-03-17T10:02:52.808Z,23.73
2019-03-17T10:05:22.265Z,23.61
2019-03-17T10:07:51.716Z,23.67
2019-03-17T10:10:22.665Z,23.08
2019-03-17T10:12:52.107Z,23.08
2019-03-17T10:15:21.702Z,22.46
2019-03-17T10:17:50.875Z,22.60
2019-03-17T10:20:22.699Z,22.77
2019-03-17T10:22:51.841Z,22.75
2019-03-17T10:25:21.003Z,21.78
2019-03-17T10:27:50.171Z,21.79
2019-03-17T10:30:20.269Z,21.62
2019-03-17T10:32:49.464Z,21.44
2019-03-17T10:35:18.766Z,21.24
2019-03-17T10:37:47.963Z,21.91
2019-03-17T10:40:18.292Z,21.61
2019-03-17T10:42:47.476Z,21.78
2019-03-17T10:45:16.833Z,21.14
2019-03-17T10:47:46.013Z,21.58
2019-03-17T10:50:20.653Z,21.01
2019-03-17T10:52:49.762Z,21.01
2019-03-17T10:55:18.880Z,20.35
2019-03-17T10:57:48.024Z,20.91
2019-03-17T11:00:18.216Z,20.19
2019-03-17T11:02:47.490Z,20.72
2019-03-17T11:05:16.798Z,20.58
2019-03-17T11:07:46.062Z,20.47
2019-03-17T11:10:16.056Z,20.42
2019-03-17T11:12:45.225Z,20.79
2019-03-17T11:15:19.275Z,19.93
2019-03-17T11:17:48.686Z,20.26
2019-03-17T11:20:17.888Z,19.88
2019-03-17T11:22:46.956Z,19.72
2019-03-17T11:25:19.963Z,19.91
2019-03-17T11:27:49.091Z,19.00
2019-03-17T11:30:19.005Z,18.92
2019-03-17T11:32:48.172Z,19.04
2019-03-17T11:35:17.378Z,19.03
2019-03-17T11:37:46.597Z,18.53
2019-03-17T11:40:16.854Z,17.99
2019-03-17T11:42:46.095Z,19.02
2019-03-17T11:45:15.850Z,18.22
2019-03-17T11:47:45.004Z,17.62
2019-03-17T11:50:16.236Z,17.78
2019-03-17T11:52:45.583Z,17.99
2019-03-17T11:55:15.180Z,18.36
2019-03-17T11:57:44.589Z,17.99
2019-03-17T12:00:18.269Z,17.44
2019-03-17T12:02:47.412Z,18.66
2019-03-17T12:05:16.483Z,17.64
2019-03-17T12:07:45.625Z,18.57
2019-03-17T12:10:18.838Z,18.66
2019-03-17T12:12:47.939Z,18.05
2019-03-17T12:15:20.029Z,18.29
2019-03-17T12:17:49.143Z,17.86
2019-03-17T12:20:18.292Z,18.40
2019-03-17T12:22:47.650Z,18.16
2019-03-17T12:25:17.843Z,18.64
2019-03-17T12:27:46.974Z,18.62
2019-03-17T12:30:23.460Z,18.64
2019-03-17T12:32:53.293Z,18.14
2019-03-17T12:35:22.607Z,18.33
2019-03-17T12:37:51.764Z,17.55
2019-03-17T12:40:20.990Z,18.26
2019-03-17T12:42:50.185Z,17.90
2019-03-17T12:45:19.680Z,17.94
2019-03-17T12:47:49.332Z,17.44
2019-03-17T12:50:20.818Z,17.76
2019-03-17T12:52:50.053Z,17.16
2019-03-17T12:55:19.361Z,17.20
2019-03-17T12:57:48.570Z,17.17
2019-03-17T13:00:19.213Z,16.65
2019-03-17T13:02:48.332Z,16.12
2019-03-17T13:05:17.403Z,17.80
2019-03-17T13:07:46.589Z,17.57
2019-03-17T13:10:18.002Z,17.36
2019-03-17T13:12:47.106Z,17.00
2019-03-17T13:15:16.377Z,17.74
2019-03-17T13:17:45.612Z,18.04
2019-03-17T13:20:15.824Z,17.48
2019-03-17T13:22:44.979Z,17.21
2019-03-17T13:25:14.221Z,17.55
2019-03-17T13:27:43.419Z,17.40
2019-03-17T13:30:17.297Z,17.37
2019-03-17T13:32:46.585Z,17.08
2019-03-17T13:35:16.081Z,18.00
2019-03-17T13:37:45.393Z,18.12
2019-03-17T13:40:29.342Z,17.21
2019-03-17T13:42:52.750Z,17.75
2019-03-17T13:45:21.953Z,17.58
2019-03-17T13:47:53.006Z,17.33
2019-03-17T13:50:23.110Z,17.75
2019-03-17T13:52:52.396Z,16.81
2019-03-17T13:55:21.787Z,18.63
2019-03-17T13:57:56.939Z,17.46
2019-03-17T14:00:26.061Z,16.69
2019-03-17T14:02:55.339Z,17.06
2019-03-17T14:05:27.645Z,16.54
2019-03-17T14:07:56.871Z,16.21
2019-03-17T14:10:26.234Z,16.71
2019-03-17T14:12:55.388Z,17.11
2019-03-17T14:15:27.368Z,15.89
2019-03-17T14:17:56.955Z,15.96
2019-03-17T14:20:26.127Z,16.91
2019-03-17T14:22:55.349Z,16.94
2019-03-17T14:25:27.326Z,17.00
2019-03-17T14:27:56.749Z,16.60
2019-03-17T14:30:26.124Z,17.21
2019-03-17T14:32:55.513Z,17.29
2019-03-17T14:35:24.816Z,16.33
2019-03-17T14:37:54.019Z,17.38
2019-03-17T14:40:23.154Z,17.07
2019-03-17T14:42:55.293Z,17.22
2019-03-17T14:45:23.350Z,17.06
2019-03-17T14:47:52.648Z,16.57
2019-03-17T14:50:23.946Z,17.56
2019-03-17T14:52:53.130Z,16.71
2019-03-17T14:55:22.391Z,16.83
2019-03-17T14:57:51.492Z,17.03
2019-03-17T15:00:21.530Z,17.35
2019-03-17T15:02:50.670Z,17.45
2019-03-17T15:05:19.823Z,17.68
2019-03-17T15:07:49.028Z,17.49
2019-03-17T15:10:23.237Z,16.79
2019-03-17T15:12:52.393Z,17.32
2019-03-17T15:15:22.257Z,16.67
2019-03-17T15:17:51.435Z,16.46
2019-03-17T15:20:22.739Z,17.61
2019-03-17T15:22:51.896Z,16.72
2019-03-17T15:25:21.037Z,17.42
2019-03-17T15:27:50.192Z,16.56
2019-03-17T15:30:21.775Z,16.92
2019-03-17T15:32:51.147Z,16.51
2019-03-17T15:35:20.346Z,16.39
2019-03-17T15:37:49.525Z,15.86
2019-03-17T15:40:22.388Z,16.07
2019-03-17T15:42:51.527Z,15.76
2019-03-17T15:45:25.669Z,16.09
2019-03-17T15:47:54.987Z,16.38
2019-03-17T15:50:28.233Z,16.49
2019-03-17T15:52:57.431Z,16.58
2019-03-17T15:55:26.632Z,16.76
2019-03-17T15:57:55.818Z,18.08
2019-03-17T16:00:26.860Z,18.77
2019-03-17T16:02:56.678Z,19.35
2019-03-17T16:05:26.087Z,20.24
2019-03-17T16:07:55.223Z,21.44
2019-03-17T16:10:26.172Z,21.44
2019-03-17T16:12:55.591Z,21.63
2019-03-17T16:15:25.015Z,23.08
2019-03-17T16:17:54.384Z,23.00
2019-03-17T16:20:24.813Z,23.26
2019-03-17T16:22:54.278Z,23.26
2019-03-17T16:25:31.560Z,23.81
2019-03-17T16:28:01.019Z,25.25
2019-03-17T16:30:31.502Z,24.91
2019-03-17T16:33:01.054Z,25.44
2019-03-17T16:35:30.773Z,25.96
2019-03-17T16:38:01.656Z,26.78
2019-03-17T16:40:34.023Z,26.78
2019-03-17T16:43:03.948Z,27.74
2019-03-17T16:45:33.453Z,28.08
2019-03-17T16:48:03.070Z,28.14
2019-03-17T16:50:32.836Z,28.14
2019-03-17T16:53:02.346Z,28.86
2019-03-17T16:55:31.864Z,28.86
2019-03-17T16:58:01.479Z,31.07
2019-03-17T17:00:31.039Z,30.99
2019-03-17T17:03:00.669Z,30.39
2019-03-17T17:05:30.214Z,30.36
2019-03-17T17:07:59.713Z,31.71
2019-03-17T17:10:29.966Z,31.70
2019-03-17T17:12:59.567Z,31.86
2019-03-17T17:15:30.363Z,31.86
2019-03-17T17:17:59.940Z,31.88
2019-03-17T17:20:37.544Z,32.22
2019-03-17T17:23:06.969Z,32.32
2019-03-17T17:25:36.410Z,33.09
2019-03-17T17:28:06.513Z,33.08
2019-03-17T17:30:35.942Z,32.30
2019-03-17T17:33:05.729Z,32.27
2019-03-17T17:35:35.166Z,32.45
2019-03-17T17:38:04.621Z,32.79
2019-03-17T17:40:34.143Z,33.00
2019-03-17T17:43:03.571Z,33.44
2019-03-17T17:45:33.083Z,33.79
2019-03-17T17:48:02.585Z,34.27
2019-03-17T17:50:32.861Z,35.09
2019-03-17T17:53:02.377Z,34.63
2019-03-17T17:55:31.931Z,35.11
2019-03-17T17:58:04.630Z,35.80
2019-03-17T18:00:41.874Z,34.69
2019-03-17T18:03:11.328Z,34.18
2019-03-17T18:05:40.915Z,34.29
2019-03-17T18:08:10.384Z,35.46
2019-03-17T18:10:39.886Z,35.56
2019-03-17T18:13:09.321Z,35.71
2019-03-17T18:15:39.672Z,35.90
2019-03-17T18:18:09.132Z,36.53
2019-03-17T18:20:38.582Z,37.40
2019-03-17T18:23:17.276Z,37.83
2019-03-17T18:25:39.306Z,38.66
2019-03-17T18:28:08.796Z,39.24
2019-03-17T18:30:38.389Z,40.10
2019-03-17T18:33:07.931Z,40.60
2019-03-17T18:35:37.551Z,40.82
2019-03-17T18:38:07.158Z,41.50
2019-03-17T18:40:36.644Z,41.94
2019-03-17T18:43:06.194Z,42.20
2019-03-17T18:45:42.638Z,42.30
2019-03-17T18:48:06.963Z,42.56
2019-03-17T18:50:36.502Z,42.91
2019-03-17T18:53:06.138Z,42.98
2019-03-17T18:55:35.721Z,43.19
2019-03-17T18:58:05.151Z,43.50
2019-03-17T19:00:34.722Z,43.74
2019-03-17T19:03:04.151Z,43.92
2019-03-17T19:05:33.636Z,44.23
2019-03-17T19:08:03.079Z,44.08
2019-03-17T19:10:32.460Z,44.29
2019-03-17T19:13:03.966Z,44.54
2019-03-17T19:15:33.105Z,44.72
2019-03-17T19:18:02.537Z,44.33
2019-03-17T19:20:31.995Z,44.23
2019-03-17T19:23:01.506Z,44.24
2019-03-17T19:25:31.723Z,43.99
2019-03-17T19:28:01.255Z,44.16
2019-03-17T19:30:30.762Z,44.15
2019-03-17T19:33:00.224Z,44.06
2019-03-17T19:35:29.683Z,44.14
2019-03-17T19:38:00.906Z,44.49
2019-03-17T19:40:30.419Z,45.11
2019-03-17T19:43:00.048Z,45.22
2019-03-17T19:45:29.486Z,45.43
2019-03-17T19:47:58.989Z,45.56
2019-03-17T19:50:28.438Z,46.01
2019-03-17T19:52:57.904Z,46.42
2019-03-17T19:55:27.377Z,46.61
2019-03-17T19:57:56.822Z,47.17
2019-03-17T20:00:26.259Z,47.13
2019-03-17T20:02:55.821Z,47.70
2019-03-17T20:05:25.241Z,48.49
2019-03-17T20:07:55.053Z,48.70
2019-03-17T20:10:28.621Z,48.86
2019-03-17T20:13:10.465Z,48.43
2019-03-17T20:15:29.270Z,48.69
2019-03-17T20:17:58.755Z,48.63
2019-03-17T20:20:28.125Z,48.59
2019-03-17T20:22:57.553Z,49.20
2019-03-17T20:25:27.024Z,49.57
2019-03-17T20:27:56.519Z,49.61
2019-03-17T20:30:26.045Z,50.30
2019-03-17T20:32:55.520Z,50.43
2019-03-17T20:35:24.987Z,50.48
2019-03-17T20:37:54.427Z,50.11
2019-03-17T20:40:23.930Z,50.29
2019-03-17T20:42:53.356Z,50.27
2019-03-17T20:45:22.786Z,50.09
2019-03-17T20:47:52.238Z,50.55
2019-03-17T20:50:21.681Z,50.75
2019-03-17T20:52:51.111Z,50.17
2019-03-17T20:55:20.556Z,51.10
2019-03-17T20:57:49.930Z,51.30
2019-03-17T21:00:20.010Z,50.88
2019-03-17T21:02:49.450Z,50.77
2019-03-17T21:05:18.911Z,50.57
2019-03-17T21:07:48.357Z,50.09
2019-03-17T21:10:18.099Z,50.49
2019-03-17T21:12:47.551Z,50.05
2019-03-17T21:15:20.978Z,50.16
2019-03-17T21:17:50.416Z,49.19
2019-03-17T21:20:21.475Z,49.48
2019-03-17T21:22:50.960Z,49.76
2019-03-17T21:25:20.420Z,50.13
2019-03-17T21:27:49.889Z,49.93
2019-03-17T21:30:22.320Z,50.00
2019-03-17T21:32:51.724Z,50.04
2019-03-17T21:35:21.198Z,49.88
2019-03-17T21:37:50.673Z,50.29
2019-03-17T21:40:20.131Z,50.56
2019-03-17T21:42:49.561Z,51.28
2019-03-17T21:45:19.102Z,52.00
2019-03-17T21:47:48.546Z,51.46
2019-03-17T21:50:19.018Z,51.57
2019-03-17T21:52:48.447Z,51.54
2019-03-17T21:55:17.885Z,51.99
2019-03-17T21:57:47.337Z,51.55
2019-03-17T22:00:17.473Z,51.84
2019-03-17T22:02:46.922Z,52.25
2019-03-17T22:05:16.888Z,52.35
2019-03-17T22:07:51.030Z,52.04
2019-03-17T22:10:18.596Z,52.25
2019-03-17T22:12:48.078Z,52.47
2019-03-17T22:15:18.306Z,52.41
2019-03-17T22:17:47.692Z,52.68
2019-03-17T22:20:17.321Z,53.19
2019-03-17T22:22:46.765Z,52.87
2019-03-17T22:25:16.449Z,52.83
2019-03-17T22:27:45.894Z,52.23
2019-03-17T22:30:17.356Z,52.19
2019-03-17T22:32:46.753Z,51.69
2019-03-17T22:35:16.208Z,52.46
2019-03-17T22:37:45.707Z,52.20
2019-03-17T22:40:16.038Z,52.54
2019-03-17T22:42:45.618Z,53.17
2019-03-17T22:45:18.141Z,52.51
2019-03-17T22:47:47.586Z,52.81
2019-03-17T22:50:18.763Z,53.25
2019-03-17T22:52:48.211Z,52.57
2019-03-17T22:55:17.629Z,53.65
2019-03-17T22:57:46.977Z,53.49
2019-03-17T23:00:22.329Z,54.89
2019-03-17T23:02:51.875Z,54.38
2019-03-17T23:05:21.239Z,54.87
2019-03-17T23:07:50.592Z,54.67
2019-03-17T23:10:20.020Z,55.22
2019-03-17T23:12:49.489Z,55.55
2019-03-17T23:15:18.925Z,55.63
2019-03-17T23:17:48.316Z,55.95
2019-03-17T23:20:17.853Z,56.57
2019-03-17T23:22:47.286Z,56.54
2019-03-17T23:25:16.706Z,56.82
2019-03-17T23:27:46.144Z,57.32
2019-03-17T23:30:17.647Z,57.29
2019-03-17T23:32:49.181Z,57.61
2019-03-17T23:35:18.372Z,57.48
2019-03-17T23:37:47.782Z,57.36
2019-03-17T23:40:17.916Z,57.14
2019-03-17T23:42:47.388Z,56.73
2019-03-17T23:45:16.814Z,56.91
2019-03-17T23:47:46.248Z,57.20
2019-03-17T23:50:15.957Z,56.68
2019-03-17T23:52:45.448Z,56.56
2019-03-17T23:55:15.694Z,56.47
2019-03-17T23:57:45.156Z,56.65
